Time;durP1;ratioP1;P1;durP2;ratioP2;P2;SDS_P1;SDS_P2;PMS_P1;PMS_P2;Temp;Humidity;BMP_temperature;BMP_pressure;BME280_temperature;BME280_humidity;BME280_pressure;Samples;Min_cycle;Max_cycle;Signal;HPM_P1;HPM_P2
2021/08/01 00:00:25;;;;;;;8.27;4.88;;;;;;;;;;8224588;28;20071;-71
2021/08/01 00:04:31;;;;;;;7.07;4.57;;;;;;;;;;8187758;28;20389;-72
2021/08/01 00:08:40;;;;;;;8.50;4.80;;;;;;;;;;8141826;28;20347;-73
2021/08/01 00:12:45;;;;;;;11.93;5.18;;;;;;;;;;8159548;28;20068;-71
2021/08/01 00:16:49;;;;;;;5.93;4.55;;;;;;;;;;8141344;28;20409;-72
2021/08/01 00:20:55;;;;;;;10.50;4.43;;;;;;;;;;8144188;28;20532;-73
2021/08/01 00:25:00;;;;;;;6.68;4.00;;;;;;;;;;8141866;28;20501;-73
2021/08/01 00:29:06;;;;;;;8.07;4.53;;;;;;;;;;8141354;28;20350;-72
2021/08/01 00:33:11;;;;;;;6.47;4.03;;;;;;;;;;8159022;28;20362;-73
2021/08/01 00:37:17;;;;;;;5.50;4.30;;;;;;;;;;8160950;28;20484;-72
2021/08/01 00:41:20;;;;;;;6.93;4.60;;;;;;;;;;8167250;28;20481;-72
2021/08/01 00:45:24;;;;;;;7.18;4.78;;;;;;;;;;8197868;28;20062;-72
2021/08/01 00:49:29;;;;;;;7.97;4.80;;;;;;;;;;8194721;28;20461;-73
2021/08/01 00:53:35;;;;;;;8.65;4.88;;;;;;;;;;8196244;28;20068;-72
2021/08/01 00:57:41;;;;;;;6.78;5.05;;;;;;;;;;8179820;28;20485;-73
2021/08/01 01:01:58;;;;;;;7.47;4.50;;;;;;;;;;8180451;28;20476;-72
2021/08/01 01:06:11;;;;;;;5.40;4.28;;;;;;;;;;8179594;28;20064;-72
2021/08/01 01:10:47;;;;;;;7.20;5.13;;;;;;;;;;8179621;28;20464;-72
2021/08/01 01:15:13;;;;;;;7.60;4.85;;;;;;;;;;8181770;28;20373;-72
2021/08/01 01:19:24;;;;;;;7.75;4.78;;;;;;;;;;8179153;28;20072;-72
2021/08/01 01:23:39;;;;;;;5.82;3.92;;;;;;;;;;8179803;28;20580;-73
2021/08/01 01:27:58;;;;;;;8.52;4.30;;;;;;;;;;8196804;28;20046;-72
2021/08/01 01:32:08;;;;;;;6.15;4.38;;;;;;;;;;8179674;28;20042;-71
2021/08/01 01:36:18;;;;;;;6.03;4.40;;;;;;;;;;8178764;28;20465;-72
2021/08/01 01:40:23;;;;;;;7.43;4.22;;;;;;;;;;8161886;28;20674;-73
2021/08/01 01:44:49;;;;;;;8.30;4.40;;;;;;;;;;8179972;28;20465;-73
2021/08/01 01:48:56;;;;;;;6.13;4.57;;;;;;;;;;8179529;28;20465;-72
2021/08/01 01:53:01;;;;;;;9.85;4.57;;;;;;;;;;8179830;28;20357;-73
2021/08/01 01:57:07;;;;;;;8.25;4.28;;;;;;;;;;8161267;28;20369;-72
2021/08/01 02:01:14;;;;;;;9.90;4.70;;;;;;;;;;8177892;28;20373;-72
2021/08/01 02:05:19;;;;;;;6.93;4.40;;;;;;;;;;8177797;28;20804;-73
2021/08/01 02:09:52;;;;;;;10.70;4.40;;;;;;;;;;8195054;28;20465;-72
2021/08/01 02:14:10;;;;;;;8.40;4.18;;;;;;;;;;8177251;28;20510;-71
2021/08/01 02:18:46;;;;;;;5.00;3.72;;;;;;;;;;8161886;28;20372;-72
2021/08/01 02:22:53;;;;;;;5.15;4.18;;;;;;;;;;8159487;28;20488;-72
2021/08/01 02:26:59;;;;;;;8.98;3.75;;;;;;;;;;8177495;28;20064;-72
2021/08/01 02:31:04;;;;;;;7.22;4.47;;;;;;;;;;8160002;28;20503;-73
2021/08/01 02:35:10;;;;;;;6.60;5.10;;;;;;;;;;8161829;28;20557;-72
2021/08/01 02:39:16;;;;;;;11.82;5.03;;;;;;;;;;8177009;28;20484;-72
2021/08/01 02:43:22;;;;;;;35.13;23.75;;;;;;;;;;8176579;28;20461;-72
2021/08/01 02:47:30;;;;;;;12.00;8.02;;;;;;;;;;8177180;28;20474;-72
2021/08/01 02:51:36;;;;;;;7.50;4.93;;;;;;;;;;8177435;28;20467;-72
2021/08/01 02:55:46;;;;;;;8.35;4.70;;;;;;;;;;8176307;28;20461;-72
2021/08/01 02:59:50;;;;;;;7.68;5.38;;;;;;;;;;8177892;28;20372;-72
2021/08/01 03:03:56;;;;;;;9.20;5.97;;;;;;;;;;8176276;28;20481;-72
2021/08/01 03:08:01;;;;;;;6.13;4.40;;;;;;;;;;8175900;28;20405;-72
2021/08/01 03:13:29;;;;;;;9.80;5.00;;;;;;;;;;8273153;27;1257521;-71
2021/08/01 03:17:35;;;;;;;10.18;5.15;;;;;;;;;;8207204;28;20461;-72
2021/08/01 03:21:39;;;;;;;11.10;5.25;;;;;;;;;;8199140;28;20515;-71
2021/08/01 03:25:57;;;;;;;7.90;4.53;;;;;;;;;;8148090;28;20345;-71
2021/08/01 03:30:03;;;;;;;8.10;4.97;;;;;;;;;;8176997;28;20475;-71
2021/08/01 03:34:08;;;;;;;9.95;4.45;;;;;;;;;;8200661;28;20344;-71
2021/08/01 03:38:15;;;;;;;11.20;4.90;;;;;;;;;;8200419;28;20504;-71
2021/08/01 03:42:38;;;;;;;9.45;5.18;;;;;;;;;;8200400;28;20463;-71
2021/08/01 03:46:44;;;;;;;8.13;5.00;;;;;;;;;;8199391;28;20068;-71
2021/08/01 03:50:49;;;;;;;6.72;4.55;;;;;;;;;;8203067;28;20439;-71
2021/08/01 03:56:19;;;;;;;6.95;4.43;;;;;;;;;;8140437;27;1934064;-72
2021/08/01 04:00:24;;;;;;;8.93;5.10;;;;;;;;;;8111562;28;20469;-71
2021/08/01 04:04:27;;;;;;;12.68;5.45;;;;;;;;;;8197022;28;20405;-72
2021/08/01 04:08:34;;;;;;;9.27;5.30;;;;;;;;;;8184702;28;20358;-73
2021/08/01 04:12:38;;;;;;;10.73;6.00;;;;;;;;;;8186468;28;20073;-72
2021/08/01 04:16:44;;;;;;;9.63;5.50;;;;;;;;;;8171312;28;20361;-72
2021/08/01 04:20:50;;;;;;;10.18;5.65;;;;;;;;;;8186829;28;20508;-71
2021/08/01 04:24:55;;;;;;;14.52;8.30;;;;;;;;;;8200092;28;20038;-73
2021/08/01 04:29:00;;;;;;;15.10;6.72;;;;;;;;;;8192281;28;20121;-72
2021/08/01 04:33:04;;;;;;;21.83;6.45;;;;;;;;;;8171755;28;20486;-72
2021/08/01 04:37:07;;;;;;;10.70;5.75;;;;;;;;;;8192420;28;20042;-71
2021/08/01 04:41:12;;;;;;;15.00;5.20;;;;;;;;;;8184734;28;20373;-72
2021/08/01 04:45:16;;;;;;;12.25;6.38;;;;;;;;;;8185991;28;20065;-71
2021/08/01 04:49:19;;;;;;;10.82;5.55;;;;;;;;;;8153790;28;20069;-71
2021/08/01 04:53:23;;;;;;;10.98;5.35;;;;;;;;;;8186207;28;20050;-72
2021/08/01 04:57:27;;;;;;;11.38;5.18;;;;;;;;;;8121180;28;20488;-72
2021/08/01 05:01:32;;;;;;;12.98;6.05;;;;;;;;;;8225138;28;20372;-72
2021/08/01 05:05:38;;;;;;;10.93;5.90;;;;;;;;;;8207029;28;20453;-72
2021/08/01 05:09:43;;;;;;;8.05;5.47;;;;;;;;;;8111413;28;20088;-72
2021/08/01 05:13:49;;;;;;;10.27;5.13;;;;;;;;;;8162048;28;20547;-72
2021/08/01 05:17:54;;;;;;;8.40;5.32;;;;;;;;;;8194350;28;20339;-71
2021/08/01 05:22:01;;;;;;;9.68;5.40;;;;;;;;;;8199023;28;20050;-72
2021/08/01 05:26:05;;;;;;;9.05;4.85;;;;;;;;;;8195368;28;20064;-72
2021/08/01 05:30:11;;;;;;;7.85;4.88;;;;;;;;;;8197164;28;20385;-71
2021/08/01 05:34:16;;;;;;;10.82;5.57;;;;;;;;;;8196509;28;20358;-72
2021/08/01 05:38:21;;;;;;;11.43;5.43;;;;;;;;;;8147380;28;20483;-72
2021/08/01 05:42:28;;;;;;;9.13;5.28;;;;;;;;;;8194766;28;20350;-72
2021/08/01 05:46:32;;;;;;;8.48;4.60;;;;;;;;;;8194947;28;20480;-73
2021/08/01 05:50:35;;;;;;;11.65;4.18;;;;;;;;;;8193163;28;20065;-71
2021/08/01 05:54:39;;;;;;;13.07;5.00;;;;;;;;;;8192877;28;20046;-72
2021/08/01 05:58:43;;;;;;;6.72;4.28;;;;;;;;;;8194920;28;20049;-72
2021/08/01 06:02:49;;;;;;;8.75;4.50;;;;;;;;;;8195995;28;20341;-71
2021/08/01 06:06:53;;;;;;;18.27;12.00;;;;;;;;;;8209387;28;20437;-72
2021/08/01 06:10:59;;;;;;;17.70;9.60;;;;;;;;;;8190595;28;20469;-71
2021/08/01 06:15:05;;;;;;;12.88;7.22;;;;;;;;;;8194864;28;20069;-72
2021/08/01 06:19:10;;;;;;;11.57;6.10;;;;;;;;;;8192236;28;20366;-71
2021/08/01 06:23:16;;;;;;;8.50;5.07;;;;;;;;;;8196932;28;20038;-71
2021/08/01 06:27:21;;;;;;;9.82;5.28;;;;;;;;;;8194601;28;20311;-72
2021/08/01 06:31:26;;;;;;;8.30;4.90;;;;;;;;;;8194252;28;20483;-72
2021/08/01 06:35:31;;;;;;;8.55;5.05;;;;;;;;;;8195077;28;20049;-72
2021/08/01 06:39:36;;;;;;;6.00;4.53;;;;;;;;;;8191988;28;20485;-72
2021/08/01 06:43:42;;;;;;;5.63;4.47;;;;;;;;;;8193478;28;20334;-71
2021/08/01 06:47:47;;;;;;;8.75;5.28;;;;;;;;;;8194425;28;20373;-72
2021/08/01 06:51:52;;;;;;;6.70;4.60;;;;;;;;;;8194061;28;20453;-72
2021/08/01 06:55:58;;;;;;;7.28;4.18;;;;;;;;;;8192760;28;20175;-71
2021/08/01 07:00:05;;;;;;;4.95;3.70;;;;;;;;;;8176412;28;20491;-73
2021/08/01 07:04:10;;;;;;;6.65;4.10;;;;;;;;;;8193826;28;20361;-71
2021/08/01 07:08:15;;;;;;;10.85;3.47;;;;;;;;;;8193662;28;20131;-72
2021/08/01 07:12:21;;;;;;;6.05;3.10;;;;;;;;;;8192590;28;20507;-72
2021/08/01 07:16:26;;;;;;;4.70;3.30;;;;;;;;;;8192181;28;20038;-71
2021/08/01 07:20:32;;;;;;;6.00;3.78;;;;;;;;;;8194597;28;20369;-72
2021/08/01 07:24:38;;;;;;;8.82;3.05;;;;;;;;;;8192854;28;20041;-72
2021/08/01 07:28:43;;;;;;;13.20;4.00;;;;;;;;;;8193063;28;20046;-73
2021/08/01 07:32:49;;;;;;;12.10;4.55;;;;;;;;;;8192725;28;20461;-72
2021/08/01 07:36:54;;;;;;;9.48;5.25;;;;;;;;;;8192528;28;20388;-72
2021/08/01 07:40:59;;;;;;;8.45;4.47;;;;;;;;;;8207411;28;20469;-71
2021/08/01 07:45:09;;;;;;;9.63;4.13;;;;;;;;;;8192216;28;20373;-72
2021/08/01 07:49:14;;;;;;;8.32;4.35;;;;;;;;;;8190947;28;20065;-73
2021/08/01 07:53:19;;;;;;;7.70;4.60;;;;;;;;;;8207435;28;20365;-71
2021/08/01 07:57:29;;;;;;;6.90;4.07;;;;;;;;;;8191069;28;20456;-72
2021/08/01 08:01:34;;;;;;;8.50;3.53;;;;;;;;;;8192109;28;20385;-73
2021/08/01 08:05:40;;;;;;;5.53;2.97;;;;;;;;;;8191383;28;20382;-72
2021/08/01 08:09:45;;;;;;;5.53;3.33;;;;;;;;;;8206371;28;20469;-73
2021/08/01 08:13:51;;;;;;;8.93;3.88;;;;;;;;;;8189694;28;20397;-72
2021/08/01 08:17:56;;;;;;;5.15;2.70;;;;;;;;;;8191940;28;20053;-74
2021/08/01 08:22:02;;;;;;;5.60;3.03;;;;;;;;;;8188940;28;20473;-72
2021/08/01 08:26:06;;;;;;;9.05;3.92;;;;;;;;;;8190244;28;20357;-72
2021/08/01 08:30:12;;;;;;;11.95;3.40;;;;;;;;;;8189548;28;20497;-72
2021/08/01 08:34:19;;;;;;;6.25;3.58;;;;;;;;;;8174221;28;20343;-72
2021/08/01 08:38:25;;;;;;;6.90;3.15;;;;;;;;;;8193427;28;20072;-72
2021/08/01 08:42:30;;;;;;;7.88;3.80;;;;;;;;;;8194851;28;20377;-72
2021/08/01 08:46:38;;;;;;;5.43;3.28;;;;;;;;;;8197867;28;20400;-73
2021/08/01 08:50:50;;;;;;;7.00;3.90;;;;;;;;;;8198273;28;20464;-72
2021/08/01 08:55:00;;;;;;;10.35;3.78;;;;;;;;;;8195486;28;20481;-72
2021/08/01 08:59:06;;;;;;;6.57;3.17;;;;;;;;;;8197092;28;20373;-73
2021/08/01 09:03:11;;;;;;;5.55;2.92;;;;;;;;;;8195618;28;20453;-72
2021/08/01 09:07:17;;;;;;;5.65;3.17;;;;;;;;;;8180553;28;20465;-73
2021/08/01 09:11:22;;;;;;;10.88;3.47;;;;;;;;;;8196334;28;20488;-72
2021/08/01 09:15:30;;;;;;;6.30;3.15;;;;;;;;;;8196628;28;20493;-72
2021/08/01 09:19:42;;;;;;;7.32;4.10;;;;;;;;;;8199108;28;20453;-73
2021/08/01 09:23:51;;;;;;;5.30;3.15;;;;;;;;;;8194953;28;20503;-74
2021/08/01 09:28:26;;;;;;;5.65;3.80;;;;;;;;;;8196755;28;20373;-74
2021/08/01 09:32:49;;;;;;;10.18;4.45;;;;;;;;;;8186738;28;20477;-73
2021/08/01 09:37:03;;;;;;;11.45;3.92;;;;;;;;;;8198583;28;20357;-73
2021/08/01 09:41:08;;;;;;;12.88;4.30;;;;;;;;;;8195594;28;20391;-73
2021/08/01 09:45:22;;;;;;;10.50;3.80;;;;;;;;;;8194627;28;20373;-74
2021/08/01 09:49:30;;;;;;;6.10;3.70;;;;;;;;;;8196516;28;20352;-75
2021/08/01 09:53:39;;;;;;;8.23;4.30;;;;;;;;;;8195140;28;20485;-74
2021/08/01 09:57:54;;;;;;;7.28;4.28;;;;;;;;;;8193528;28;20503;-75
2021/08/01 10:02:04;;;;;;;6.82;3.92;;;;;;;;;;8194686;28;20461;-75
2021/08/01 10:06:16;;;;;;;8.80;3.97;;;;;;;;;;8195109;28;20473;-76
2021/08/01 10:10:28;;;;;;;7.57;4.05;;;;;;;;;;8193534;28;20485;-74
2021/08/01 10:14:34;;;;;;;5.93;3.95;;;;;;;;;;8197425;28;20369;-73
2021/08/01 10:18:44;;;;;;;8.85;3.88;;;;;;;;;;8196548;28;20041;-73
2021/08/01 10:22:54;;;;;;;8.68;3.80;;;;;;;;;;8194005;28;20042;-74
2021/08/01 10:27:10;;;;;;;9.20;3.50;;;;;;;;;;8196186;28;20392;-74
2021/08/01 10:31:18;;;;;;;6.25;4.00;;;;;;;;;;8194085;28;20449;-73
2021/08/01 10:35:25;;;;;;;9.20;3.47;;;;;;;;;;8193819;28;20465;-74
2021/08/01 10:39:35;;;;;;;5.60;4.22;;;;;;;;;;8192779;28;20346;-74
2021/08/01 10:43:42;;;;;;;9.07;3.95;;;;;;;;;;8194066;28;20046;-74
2021/08/01 10:47:52;;;;;;;5.65;3.65;;;;;;;;;;8192152;28;20396;-73
2021/08/01 10:51:57;;;;;;;8.48;3.78;;;;;;;;;;8195099;28;20468;-73
2021/08/01 10:56:15;;;;;;;8.50;3.53;;;;;;;;;;8192468;28;20469;-73
2021/08/01 11:00:20;;;;;;;6.47;3.67;;;;;;;;;;8193327;28;20488;-73
2021/08/01 11:04:32;;;;;;;9.23;3.63;;;;;;;;;;8192737;28;20037;-73
2021/08/01 11:09:09;;;;;;;6.03;3.75;;;;;;;;;;8195875;28;20050;-73
2021/08/01 11:13:28;;;;;;;8.30;3.95;;;;;;;;;;8190077;28;20058;-73
2021/08/01 11:17:43;;;;;;;9.40;3.90;;;;;;;;;;8194052;28;20357;-72
2021/08/01 11:21:48;;;;;;;4.82;3.17;;;;;;;;;;8194848;28;20046;-73
2021/08/01 11:26:08;;;;;;;7.55;2.95;;;;;;;;;;8193523;28;20477;-74
2021/08/01 11:30:14;;;;;;;5.70;3.30;;;;;;;;;;8193316;28;20067;-73
2021/08/01 11:34:23;;;;;;;5.55;2.83;;;;;;;;;;8195430;28;20362;-72
2021/08/01 11:38:28;;;;;;;5.28;3.00;;;;;;;;;;8140212;28;20356;-72
2021/08/01 11:42:34;;;;;;;4.97;3.03;;;;;;;;;;8192817;28;20484;-72
2021/08/01 11:47:04;;;;;;;4.90;3.00;;;;;;;;;;8192389;28;20354;-72
2021/08/01 11:51:10;;;;;;;6.38;3.50;;;;;;;;;;8191415;28;20373;-73
2021/08/01 11:55:18;;;;;;;5.47;2.63;;;;;;;;;;8192255;28;20076;-74
2021/08/01 11:59:24;;;;;;;7.10;2.70;;;;;;;;;;8175311;28;20401;-73
2021/08/01 12:03:31;;;;;;;5.82;2.50;;;;;;;;;;8190503;28;20473;-73
2021/08/01 12:07:42;;;;;;;6.30;2.67;;;;;;;;;;8207819;28;20049;-72
2021/08/01 12:11:59;;;;;;;11.23;3.00;;;;;;;;;;8192767;28;20073;-73
2021/08/01 12:16:25;;;;;;;5.57;2.90;;;;;;;;;;8193725;28;20053;-73
2021/08/01 12:20:37;;;;;;;3.10;2.38;;;;;;;;;;8181982;28;20365;-73
2021/08/01 12:24:58;;;;;;;3.53;2.55;;;;;;;;;;8197769;28;20477;-72
2021/08/01 12:29:03;;;;;;;5.40;2.67;;;;;;;;;;8197927;28;20461;-73
2021/08/01 12:33:08;;;;;;;4.22;2.30;;;;;;;;;;8180987;28;20381;-72
2021/08/01 12:37:17;;;;;;;4.03;2.00;;;;;;;;;;8197649;28;20472;-72
2021/08/01 12:41:22;;;;;;;5.20;1.90;;;;;;;;;;8198182;28;20398;-74
2021/08/01 12:45:40;;;;;;;3.35;2.40;;;;;;;;;;8197737;28;20479;-74
2021/08/01 12:49:46;;;;;;;2.17;1.50;;;;;;;;;;8162458;28;20045;-76
2021/08/01 12:53:58;;;;;;;2.58;1.83;;;;;;;;;;8196039;28;20488;-75
2021/08/01 12:58:05;;;;;;;4.10;1.83;;;;;;;;;;8180347;28;20357;-76
2021/08/01 13:02:12;;;;;;;6.38;1.80;;;;;;;;;;8197693;28;20491;-75
2021/08/01 13:06:28;;;;;;;3.72;1.58;;;;;;;;;;8197003;28;20050;-76
2021/08/01 13:10:49;;;;;;;15.70;2.78;;;;;;;;;;8200978;28;20354;-78
2021/08/01 13:14:54;;;;;;;6.15;2.10;;;;;;;;;;8206076;28;20384;-78
2021/08/01 13:19:12;;;;;;;4.88;1.63;;;;;;;;;;8223527;28;20491;-75
2021/08/01 13:23:39;;;;;;;3.95;1.65;;;;;;;;;;8205586;28;20042;-75
2021/08/01 13:27:52;;;;;;;5.78;2.78;;;;;;;;;;8211666;28;20068;-76
2021/08/01 13:32:07;;;;;;;5.45;2.00;;;;;;;;;;8205569;28;20064;-77
2021/08/01 13:36:12;;;;;;;3.00;1.65;;;;;;;;;;8199991;28;20069;-75
2021/08/01 13:40:28;;;;;;;3.88;1.60;;;;;;;;;;8197178;28;20489;-76
2021/08/01 13:44:38;;;;;;;2.95;1.63;;;;;;;;;;8179412;28;20049;-76
2021/08/01 13:48:43;;;;;;;4.75;1.58;;;;;;;;;;8195408;28;20495;-75
2021/08/01 13:52:51;;;;;;;5.60;1.83;;;;;;;;;;8195142;28;20408;-74
2021/08/01 13:56:56;;;;;;;1.98;1.50;;;;;;;;;;8194015;28;20465;-74
2021/08/01 14:01:02;;;;;;;4.43;1.85;;;;;;;;;;8196269;28;20380;-74
2021/08/01 14:05:08;;;;;;;2.90;1.70;;;;;;;;;;8195903;28;20056;-73
2021/08/01 14:09:14;;;;;;;2.78;1.40;;;;;;;;;;8157086;28;20067;-74
2021/08/01 14:13:19;;;;;;;3.60;1.65;;;;;;;;;;8194847;28;20485;-73
2021/08/01 14:17:24;;;;;;;4.25;1.42;;;;;;;;;;8140940;28;20358;-74
2021/08/01 14:21:30;;;;;;;3.17;1.70;;;;;;;;;;8199718;28;20346;-74
2021/08/01 14:25:35;;;;;;;1.50;1.40;;;;;;;;;;8195465;28;20054;-75
2021/08/01 14:29:44;;;;;;;2.17;1.60;;;;;;;;;;8192767;28;20376;-74
2021/08/01 14:33:51;;;;;;;4.22;1.63;;;;;;;;;;8194102;28;20354;-74
2021/08/01 14:37:56;;;;;;;4.82;1.55;;;;;;;;;;8193546;28;20345;-74
2021/08/01 14:42:02;;;;;;;2.75;1.65;;;;;;;;;;8192755;28;20042;-74
2021/08/01 14:46:07;;;;;;;3.40;2.15;;;;;;;;;;8193783;28;20442;-74
2021/08/01 14:50:27;;;;;;;2.35;1.42;;;;;;;;;;8193986;28;20488;-72
2021/08/01 14:54:38;;;;;;;2.88;1.63;;;;;;;;;;8194937;28;20449;-74
2021/08/01 14:58:47;;;;;;;6.60;1.80;;;;;;;;;;8176917;28;20487;-73
2021/08/01 15:03:13;;;;;;;4.22;1.85;;;;;;;;;;8193446;28;20057;-73
2021/08/01 15:07:29;;;;;;;3.83;1.23;;;;;;;;;;8193426;28;20495;-74
2021/08/01 15:12:09;;;;;;;2.05;1.40;;;;;;;;;;8193749;28;20495;-73
2021/08/01 15:16:15;;;;;;;2.42;1.30;;;;;;;;;;8179684;28;20381;-72
2021/08/01 15:20:20;;;;;;;3.95;1.48;;;;;;;;;;8191844;28;20499;-73
2021/08/01 15:24:44;;;;;;;2.60;1.73;;;;;;;;;;8192094;28;20453;-72
2021/08/01 15:28:51;;;;;;;4.45;2.00;;;;;;;;;;8175208;28;20361;-72
2021/08/01 15:32:57;;;;;;;4.05;2.28;;;;;;;;;;8193182;28;20483;-72
2021/08/01 15:37:05;;;;;;;3.17;2.10;;;;;;;;;;8192744;28;20354;-73
2021/08/01 15:41:11;;;;;;;2.67;1.73;;;;;;;;;;8190891;28;20445;-72
2021/08/01 15:45:18;;;;;;;4.13;2.25;;;;;;;;;;8191550;28;20037;-73
2021/08/01 15:49:23;;;;;;;6.28;2.15;;;;;;;;;;8191099;28;20373;-72
2021/08/01 15:53:44;;;;;;;4.50;1.73;;;;;;;;;;8190933;28;20511;-72
2021/08/01 15:58:01;;;;;;;8.13;2.78;;;;;;;;;;8190815;28;20046;-72
2021/08/01 16:02:09;;;;;;;;;;;;;;;;;;8194143;28;20073;-73
2021/08/01 16:06:19;;;;;;;3.47;2.10;;;;;;;;;;8192371;28;20264;-72
2021/08/01 16:10:25;;;;;;;3.42;1.88;;;;;;;;;;8207160;28;20401;-72
2021/08/01 16:14:33;;;;;;;10.27;2.47;;;;;;;;;;8190874;28;20511;-72
2021/08/01 16:18:40;;;;;;;3.85;2.08;;;;;;;;;;8192144;28;20480;-73
2021/08/01 16:22:52;;;;;;;5.45;2.17;;;;;;;;;;8189812;28;20049;-72
2021/08/01 16:26:58;;;;;;;2.75;1.98;;;;;;;;;;8190200;28;20057;-73
2021/08/01 16:31:05;;;;;;;4.60;2.60;;;;;;;;;;8191229;28;20050;-73
2021/08/01 16:35:17;;;;;;;3.93;2.10;;;;;;;;;;8158854;28;20409;-72
2021/08/01 16:39:34;;;;;;;5.75;2.30;;;;;;;;;;8188815;28;20466;-74
2021/08/01 16:44:56;;;;;;;3.97;2.38;;;;;;;;;;8189972;28;20445;-72
2021/08/01 16:49:07;;;;;;;4.07;2.25;;;;;;;;;;8134179;28;20508;-73
2021/08/01 16:53:50;;;;;;;3.63;1.92;;;;;;;;;;8189781;28;20346;-74
2021/08/01 16:58:25;;;;;;;5.75;1.98;;;;;;;;;;8190326;28;20060;-74
2021/08/01 17:02:53;;;;;;;6.07;2.20;;;;;;;;;;8191999;28;20072;-76
2021/08/01 17:07:02;;;;;;;3.35;1.73;;;;;;;;;;8181132;28;20397;-76
2021/08/01 17:11:36;;;;;;;8.45;1.98;;;;;;;;;;8196306;28;20053;-76
2021/08/01 17:15:41;;;;;;;3.40;1.63;;;;;;;;;;8194961;28;20046;-77
2021/08/01 17:19:51;;;;;;;5.00;1.75;;;;;;;;;;8196078;28;20168;-77
2021/08/01 17:23:56;;;;;;;5.25;1.70;;;;;;;;;;8197427;28;20453;-75
2021/08/01 17:28:04;;;;;;;4.03;1.20;;;;;;;;;;8194205;28;20373;-76
2021/08/01 17:32:20;;;;;;;3.72;2.00;;;;;;;;;;8194253;28;20381;-76
2021/08/01 17:36:35;;;;;;;3.72;1.67;;;;;;;;;;8195063;28;20073;-76
2021/08/01 17:40:40;;;;;;;1.92;1.60;;;;;;;;;;8194932;28;20375;-77
2021/08/01 17:44:52;;;;;;;6.55;1.80;;;;;;;;;;8194413;28;20477;-76
2021/08/01 17:49:00;;;;;;;8.40;2.28;;;;;;;;;;8195789;28;20049;-76
2021/08/01 17:53:08;;;;;;;5.57;1.83;;;;;;;;;;8193074;28;20354;-76
2021/08/01 17:57:14;;;;;;;5.63;2.20;;;;;;;;;;8194568;28;20080;-76
2021/08/01 18:01:22;;;;;;;3.63;2.00;;;;;;;;;;8210329;28;20050;-76
2021/08/01 18:05:28;;;;;;;2.53;1.73;;;;;;;;;;8178720;28;20362;-77
2021/08/01 18:09:44;;;;;;;3.17;2.10;;;;;;;;;;8194616;28;20500;-77
2021/08/01 18:14:05;;;;;;;3.92;1.73;;;;;;;;;;8195135;28;20464;-76
2021/08/01 18:18:11;;;;;;;3.42;1.90;;;;;;;;;;8193773;28;20462;-76
2021/08/01 18:22:19;;;;;;;4.10;2.10;;;;;;;;;;8192816;28;20405;-76
2021/08/01 18:26:28;;;;;;;5.80;1.97;;;;;;;;;;8191707;28;20084;-76
2021/08/01 18:30:33;;;;;;;3.30;1.98;;;;;;;;;;8193641;28;20041;-76
2021/08/01 18:34:39;;;;;;;4.93;2.30;;;;;;;;;;8194866;28;20477;-76
2021/08/01 18:38:45;;;;;;;4.28;2.50;;;;;;;;;;8195474;28;20064;-76
2021/08/01 18:43:00;;;;;;;2.80;1.83;;;;;;;;;;8172806;28;20537;-77
2021/08/01 18:47:06;;;;;;;7.95;2.78;;;;;;;;;;8152920;28;20445;-76
2021/08/01 18:51:12;;;;;;;4.60;1.92;;;;;;;;;;8168064;28;20053;-76
2021/08/01 18:55:29;;;;;;;4.78;1.80;;;;;;;;;;8109789;28;20594;-76
2021/08/01 18:59:35;;;;;;;8.35;5.20;;;;;;;;;;8115730;28;20369;-76
2021/08/01 19:03:40;;;;;;;4.15;2.00;;;;;;;;;;8171571;28;20344;-77
2021/08/01 19:07:46;;;;;;;5.13;2.35;;;;;;;;;;8154018;28;20488;-76
2021/08/01 19:11:51;;;;;;;4.72;2.30;;;;;;;;;;8159754;28;20372;-76
2021/08/01 19:16:23;;;;;;;11.20;2.67;;;;;;;;;;8160202;28;20069;-76
2021/08/01 19:21:00;;;;;;;5.05;2.88;;;;;;;;;;8159210;28;20072;-76
2021/08/01 19:25:06;;;;;;;5.75;2.83;;;;;;;;;;8144474;28;20473;-76
2021/08/01 19:29:14;;;;;;;4.18;2.67;;;;;;;;;;8162037;28;20516;-76
2021/08/01 19:33:20;;;;;;;4.93;2.90;;;;;;;;;;8146052;28;20380;-76
2021/08/01 19:37:27;;;;;;;4.00;2.30;;;;;;;;;;8160485;28;20388;-75
2021/08/01 19:41:34;;;;;;;6.07;3.50;;;;;;;;;;8161177;28;20050;-75
2021/08/01 19:45:41;;;;;;;5.73;3.00;;;;;;;;;;8161314;28;20377;-76
2021/08/01 19:49:48;;;;;;;5.32;2.58;;;;;;;;;;8159561;28;20373;-76
2021/08/01 19:53:52;;;;;;;4.88;2.53;;;;;;;;;;8158515;28;20054;-75
2021/08/01 19:57:58;;;;;;;6.43;2.65;;;;;;;;;;8159994;28;20489;-75
2021/08/01 20:02:05;;;;;;;5.82;2.80;;;;;;;;;;8158805;28;20496;-76
2021/08/01 20:06:11;;;;;;;5.60;2.63;;;;;;;;;;8160511;28;20449;-75
2021/08/01 20:10:17;;;;;;;3.92;2.40;;;;;;;;;;8175693;28;20054;-76
2021/08/01 20:14:24;;;;;;;7.68;3.58;;;;;;;;;;8159875;28;20364;-75
2021/08/01 20:18:31;;;;;;;11.10;3.45;;;;;;;;;;8160509;28;20384;-75
2021/08/01 20:22:36;;;;;;;7.43;3.17;;;;;;;;;;8160032;28;20046;-74
2021/08/01 20:26:41;;;;;;;7.30;3.42;;;;;;;;;;8160877;28;20464;-76
2021/08/01 20:30:47;;;;;;;6.93;3.03;;;;;;;;;;8159311;28;20346;-75
2021/08/01 20:34:51;;;;;;;6.10;3.08;;;;;;;;;;8161265;28;20453;-75
2021/08/01 20:38:56;;;;;;;7.93;3.53;;;;;;;;;;8165218;28;20354;-75
2021/08/01 20:43:01;;;;;;;6.10;2.85;;;;;;;;;;8165883;28;20372;-76
2021/08/01 20:47:08;;;;;;;6.57;3.22;;;;;;;;;;8149070;28;20042;-76
2021/08/01 20:51:13;;;;;;;6.18;3.38;;;;;;;;;;8166906;28;20477;-78
2021/08/01 20:55:22;;;;;;;8.30;3.67;;;;;;;;;;8148483;28;20377;-76
2021/08/01 20:59:27;;;;;;;5.88;2.35;;;;;;;;;;8167151;28;20453;-77
2021/08/01 21:03:36;;;;;;;2.38;1.40;;;;;;;;;;8172795;28;20381;-77
2021/08/01 21:07:39;;;;;;;3.22;1.75;;;;;;;;;;8166540;28;20400;-77
2021/08/01 21:11:45;;;;;;;4.07;1.85;;;;;;;;;;8171378;28;20053;-77
2021/08/01 21:16:15;;;;;;;1.88;1.45;;;;;;;;;;8166025;28;20078;-76
2021/08/01 21:20:21;;;;;;;3.30;1.60;;;;;;;;;;8164670;28;20343;-76
2021/08/01 21:24:26;;;;;;;3.47;1.58;;;;;;;;;;8149415;28;20461;-76
2021/08/01 21:28:31;;;;;;;2.47;1.92;;;;;;;;;;8165770;28;20466;-76
2021/08/01 21:32:36;;;;;;;2.83;2.38;;;;;;;;;;8167921;28;20369;-76
2021/08/01 21:36:42;;;;;;;4.32;1.90;;;;;;;;;;8168841;28;20054;-77
2021/08/01 21:40:48;;;;;;;3.78;2.05;;;;;;;;;;8167877;28;20054;-78
2021/08/01 21:44:52;;;;;;;2.25;1.92;;;;;;;;;;8149818;28;20366;-77
2021/08/01 21:48:57;;;;;;;2.72;1.60;;;;;;;;;;8167555;28;20504;-76
2021/08/01 21:53:02;;;;;;;3.45;2.10;;;;;;;;;;8169696;28;20359;-77
2021/08/01 21:57:06;;;;;;;3.92;1.63;;;;;;;;;;8167895;28;20384;-77
2021/08/01 22:01:12;;;;;;;1.95;1.42;;;;;;;;;;8166638;28;20366;-76
2021/08/01 22:05:18;;;;;;;2.05;1.50;;;;;;;;;;8165657;28;20365;-76
2021/08/01 22:09:23;;;;;;;2.30;1.25;;;;;;;;;;8164862;28;20050;-77
2021/08/01 22:13:30;;;;;;;1.80;1.33;;;;;;;;;;8165588;28;20437;-77
2021/08/01 22:17:34;;;;;;;1.58;1.20;;;;;;;;;;8166727;28;20485;-77
2021/08/01 22:21:39;;;;;;;1.92;1.10;;;;;;;;;;8164329;28;20499;-77
2021/08/01 22:25:51;;;;;;;2.03;1.20;;;;;;;;;;8163848;28;20050;-76
2021/08/01 22:29:57;;;;;;;1.65;1.20;;;;;;;;;;8163090;28;20362;-76
2021/08/01 22:34:02;;;;;;;1.10;1.00;;;;;;;;;;8160733;28;20380;-77
2021/08/01 22:38:09;;;;;;;1.77;1.13;;;;;;;;;;8161689;28;20401;-76
2021/08/01 22:42:14;;;;;;;1.23;1.02;;;;;;;;;;8162440;28;20480;-76
2021/08/01 22:46:20;;;;;;;1.48;1.15;;;;;;;;;;8162581;28;20417;-76
2021/08/01 22:50:26;;;;;;;3.50;0.93;;;;;;;;;;8162168;28;20370;-77
2021/08/01 22:54:31;;;;;;;2.75;1.10;;;;;;;;;;8162183;28;20355;-76
2021/08/01 22:58:37;;;;;;;1.20;1.10;;;;;;;;;;8161216;28;20137;-76
2021/08/01 23:02:48;;;;;;;6.07;2.08;;;;;;;;;;8160126;28;20481;-76
2021/08/01 23:06:57;;;;;;;1.30;1.20;;;;;;;;;;8144361;28;20462;-76
2021/08/01 23:11:07;;;;;;;1.10;1.00;;;;;;;;;;8161042;28;20458;-76
2021/08/01 23:15:13;;;;;;;1.73;1.17;;;;;;;;;;8161781;28;20462;-76
2021/08/01 23:19:23;;;;;;;5.00;1.27;;;;;;;;;;8161209;28;20351;-76
2021/08/01 23:23:32;;;;;;;1.20;1.10;;;;;;;;;;8159658;28;20496;-76
2021/08/01 23:27:38;;;;;;;4.70;1.25;;;;;;;;;;8159524;28;20462;-76
2021/08/01 23:31:45;;;;;;;2.60;1.13;;;;;;;;;;8163198;28;20397;-76
2021/08/01 23:35:51;;;;;;;1.50;1.02;;;;;;;;;;8159415;28;20499;-76
2021/08/01 23:39:57;;;;;;;1.20;1.02;;;;;;;;;;8159148;28;20492;-75
2021/08/01 23:44:03;;;;;;;2.20;1.25;;;;;;;;;;8159544;28;20054;-76
2021/08/01 23:48:09;;;;;;;1.50;1.10;;;;;;;;;;8159123;28;20405;-75
2021/08/01 23:52:46;;;;;;;2.45;1.40;;;;;;;;;;8159838;28;20365;-75
2021/08/01 23:57:20;;;;;;;1.45;1.25;;;;;;;;;;8160065;28;20377;-76
